Afyon, Turkey
Current Conditions -  °F | °C
As of 7:50 PM on Thursday 27 Nov 2014 (Local Time) from LTFC Reporting Station
Clear Clear  
Wind Chill: 35°   Ceiling: Unl
Heat Index: 39°   Visibility: 6mi
Dew Point: 32°   Wind: 6mph
Humidity: 75%   Direction: 360°N
Pressure: 30.12"   Gusts: NA
Location:  38.76°N, 30.54°E
Report Text: LTFC 271650Z 36005KT CAVOK 04/M00 Q1020
Loading
Personal Weather Stations






























Interactive Weather Map New forecast layout! Learn more

10-Day Weather Forecast

Advertisements
Track Severe Weather on mobile